sensor_id;sensor_type;location;lat;lon;timestamp;temperature;humidity
7694;DHT22;3889;48.162;11.510;2022-07-29T00:01:41;20.00;99.90
7694;DHT22;3889;48.162;11.510;2022-07-29T00:04:09;20.00;99.90
7694;DHT22;3889;48.162;11.510;2022-07-29T00:06:38;20.00;99.90
7694;DHT22;3889;48.162;11.510;2022-07-29T00:09:06;19.80;99.90
7694;DHT22;3889;48.162;11.510;2022-07-29T00:11:34;19.90;99.90
7694;DHT22;3889;48.162;11.510;2022-07-29T00:14:02;19.70;99.90
7694;DHT22;3889;48.162;11.510;2022-07-29T00:16:30;19.80;99.90
7694;DHT22;3889;48.162;11.510;2022-07-29T00:18:59;19.80;99.90
7694;DHT22;3889;48.162;11.510;2022-07-29T00:21:28;19.70;99.90
7694;DHT22;3889;48.162;11.510;2022-07-29T00:23:56;19.70;99.90
7694;DHT22;3889;48.162;11.510;2022-07-29T00:26:24;19.70;99.90
7694;DHT22;3889;48.162;11.510;2022-07-29T00:28:54;19.70;99.90
7694;DHT22;3889;48.162;11.510;2022-07-29T00:31:41;19.70;99.90
7694;DHT22;3889;48.162;11.510;2022-07-29T00:34:11;19.70;99.90
7694;DHT22;3889;48.162;11.510;2022-07-29T00:36:53;19.70;99.90
7694;DHT22;3889;48.162;11.510;2022-07-29T00:39:21;19.60;99.90
7694;DHT22;3889;48.162;11.510;2022-07-29T00:41:49;19.70;99.90
7694;DHT22;3889;48.162;11.510;2022-07-29T00:44:16;19.70;99.90
7694;DHT22;3889;48.162;11.510;2022-07-29T00:46:44;19.60;99.90
7694;DHT22;3889;48.162;11.510;2022-07-29T00:49:14;19.70;99.90
7694;DHT22;3889;48.162;11.510;2022-07-29T00:51:42;19.70;99.90
7694;DHT22;3889;48.162;11.510;2022-07-29T00:54:12;19.60;99.90
7694;DHT22;3889;48.162;11.510;2022-07-29T00:56:40;19.50;99.90
7694;DHT22;3889;48.162;11.510;2022-07-29T00:59:08;19.50;99.90
7694;DHT22;3889;48.162;11.510;2022-07-29T01:01:36;19.60;99.90
7694;DHT22;3889;48.162;11.510;2022-07-29T01:04:05;19.50;99.90
7694;DHT22;3889;48.162;11.510;2022-07-29T01:06:35;19.50;99.90
7694;DHT22;3889;48.162;11.510;2022-07-29T01:09:03;19.50;99.90
7694;DHT22;3889;48.162;11.510;2022-07-29T01:11:31;19.40;99.90
7694;DHT22;3889;48.162;11.510;2022-07-29T01:14:00;19.40;99.90
7694;DHT22;3889;48.162;11.510;2022-07-29T01:16:31;19.40;99.90
7694;DHT22;3889;48.162;11.510;2022-07-29T01:19:04;19.40;99.90
7694;DHT22;3889;48.162;11.510;2022-07-29T01:21:50;19.40;99.90
7694;DHT22;3889;48.162;11.510;2022-07-29T01:24:30;19.40;99.90
7694;DHT22;3889;48.162;11.510;2022-07-29T01:27:11;19.50;99.90
7694;DHT22;3889;48.162;11.510;2022-07-29T01:29:48;19.50;99.90
7694;DHT22;3889;48.162;11.510;2022-07-29T01:32:20;19.50;99.90
7694;DHT22;3889;48.162;11.510;2022-07-29T01:34:57;19.50;99.90
7694;DHT22;3889;48.162;11.510;2022-07-29T01:37:29;19.50;99.90
7694;DHT22;3889;48.162;11.510;2022-07-29T01:40:02;19.50;99.90
7694;DHT22;3889;48.162;11.510;2022-07-29T01:42:35;19.50;99.90
7694;DHT22;3889;48.162;11.510;2022-07-29T01:45:10;19.50;99.90
7694;DHT22;3889;48.162;11.510;2022-07-29T01:47:43;19.40;99.90
7694;DHT22;3889;48.162;11.510;2022-07-29T01:50:14;19.40;99.90
7694;DHT22;3889;48.162;11.510;2022-07-29T01:52:47;19.40;99.90
7694;DHT22;3889;48.162;11.510;2022-07-29T01:55:17;19.40;99.90
7694;DHT22;3889;48.162;11.510;2022-07-29T01:57:48;19.30;99.90
7694;DHT22;3889;48.162;11.510;2022-07-29T02:00:18;19.30;99.90
7694;DHT22;3889;48.162;11.510;2022-07-29T02:02:48;19.20;99.90
7694;DHT22;3889;48.162;11.510;2022-07-29T02:05:18;19.30;99.90
7694;DHT22;3889;48.162;11.510;2022-07-29T02:07:49;19.20;99.90
7694;DHT22;3889;48.162;11.510;2022-07-29T02:10:22;19.30;99.90
7694;DHT22;3889;48.162;11.510;2022-07-29T02:12:53;19.30;99.90
7694;DHT22;3889;48.162;11.510;2022-07-29T02:15:23;19.30;99.90
7694;DHT22;3889;48.162;11.510;2022-07-29T02:18:02;19.20;99.90
7694;DHT22;3889;48.162;11.510;2022-07-29T02:20:30;19.20;99.90
7694;DHT22;3889;48.162;11.510;2022-07-29T02:23:00;19.20;99.90
7694;DHT22;3889;48.162;11.510;2022-07-29T02:25:29;19.20;99.90
7694;DHT22;3889;48.162;11.510;2022-07-29T02:28:05;19.30;99.90
7694;DHT22;3889;48.162;11.510;2022-07-29T02:30:36;19.20;99.90
7694;DHT22;3889;48.162;11.510;2022-07-29T02:33:08;19.20;99.90
7694;DHT22;3889;48.162;11.510;2022-07-29T02:35:37;19.10;99.90
7694;DHT22;3889;48.162;11.510;2022-07-29T02:38:07;19.10;99.90
7694;DHT22;3889;48.162;11.510;2022-07-29T02:40:55;19.10;99.90
7694;DHT22;3889;48.162;11.510;2022-07-29T02:43:24;19.10;99.90
7694;DHT22;3889;48.162;11.510;2022-07-29T02:45:54;19.00;99.90
7694;DHT22;3889;48.162;11.510;2022-07-29T02:48:32;19.00;99.90
7694;DHT22;3889;48.162;11.510;2022-07-29T02:51:06;19.00;99.90
7694;DHT22;3889;48.162;11.510;2022-07-29T02:53:38;18.90;99.90
7694;DHT22;3889;48.162;11.510;2022-07-29T02:56:10;18.90;99.90
7694;DHT22;3889;48.162;11.510;2022-07-29T02:58:40;18.90;99.90
7694;DHT22;3889;48.162;11.510;2022-07-29T03:01:12;18.80;99.90
7694;DHT22;3889;48.162;11.510;2022-07-29T03:03:48;18.80;99.90
7694;DHT22;3889;48.162;11.510;2022-07-29T03:06:18;18.80;99.90
7694;DHT22;3889;48.162;11.510;2022-07-29T03:09:04;18.60;99.90
7694;DHT22;3889;48.162;11.510;2022-07-29T03:11:39;18.60;99.90
7694;DHT22;3889;48.162;11.510;2022-07-29T03:14:16;18.60;99.90
7694;DHT22;3889;48.162;11.510;2022-07-29T03:16:48;18.50;99.90
7694;DHT22;3889;48.162;11.510;2022-07-29T03:19:17;18.50;99.90
7694;DHT22;3889;48.162;11.510;2022-07-29T03:21:45;18.40;99.90
7694;DHT22;3889;48.162;11.510;2022-07-29T03:24:25;18.30;99.90
7694;DHT22;3889;48.162;11.510;2022-07-29T03:26:54;18.20;99.90
7694;DHT22;3889;48.162;11.510;2022-07-29T03:29:22;18.20;99.90
7694;DHT22;3889;48.162;11.510;2022-07-29T03:32:01;18.10;99.90
7694;DHT22;3889;48.162;11.510;2022-07-29T03:34:33;18.10;99.90
7694;DHT22;3889;48.162;11.510;2022-07-29T03:37:00;18.00;99.90
7694;DHT22;3889;48.162;11.510;2022-07-29T03:39:32;18.00;99.90
7694;DHT22;3889;48.162;11.510;2022-07-29T03:42:02;17.90;99.90
7694;DHT22;3889;48.162;11.510;2022-07-29T03:44:31;18.00;99.90
7694;DHT22;3889;48.162;11.510;2022-07-29T03:47:02;18.00;99.90
7694;DHT22;3889;48.162;11.510;2022-07-29T03:49:32;17.80;99.90
7694;DHT22;3889;48.162;11.510;2022-07-29T03:52:03;17.80;99.90
7694;DHT22;3889;48.162;11.510;2022-07-29T03:54:33;17.80;99.90
7694;DHT22;3889;48.162;11.510;2022-07-29T03:57:02;17.80;99.90
7694;DHT22;3889;48.162;11.510;2022-07-29T03:59:32;17.80;99.90
7694;DHT22;3889;48.162;11.510;2022-07-29T04:02:03;17.70;99.90
7694;DHT22;3889;48.162;11.510;2022-07-29T04:04:33;17.70;99.90
7694;DHT22;3889;48.162;11.510;2022-07-29T04:07:01;17.60;99.90
7694;DHT22;3889;48.162;11.510;2022-07-29T04:09:29;17.70;99.90
7694;DHT22;3889;48.162;11.510;2022-07-29T04:11:57;17.60;99.90
7694;DHT22;3889;48.162;11.510;2022-07-29T04:14:30;17.60;99.90
7694;DHT22;3889;48.162;11.510;2022-07-29T04:16:58;17.70;99.90
7694;DHT22;3889;48.162;11.510;2022-07-29T04:19:27;17.60;99.90
7694;DHT22;3889;48.162;11.510;2022-07-29T04:21:55;17.70;99.90
7694;DHT22;3889;48.162;11.510;2022-07-29T04:24:23;17.80;99.90
7694;DHT22;3889;48.162;11.510;2022-07-29T04:26:51;17.90;99.90
7694;DHT22;3889;48.162;11.510;2022-07-29T04:29:19;18.00;99.90
7694;DHT22;3889;48.162;11.510;2022-07-29T04:31:47;18.00;99.90
7694;DHT22;3889;48.162;11.510;2022-07-29T04:34:15;18.10;99.90
7694;DHT22;3889;48.162;11.510;2022-07-29T04:36:45;18.10;99.90
7694;DHT22;3889;48.162;11.510;2022-07-29T04:39:13;18.20;99.90
7694;DHT22;3889;48.162;11.510;2022-07-29T04:41:47;18.30;99.90
7694;DHT22;3889;48.162;11.510;2022-07-29T04:44:18;18.50;99.90
7694;DHT22;3889;48.162;11.510;2022-07-29T04:46:46;18.60;99.90
7694;DHT22;3889;48.162;11.510;2022-07-29T04:49:14;18.70;99.90
7694;DHT22;3889;48.162;11.510;2022-07-29T04:51:42;18.90;99.90
7694;DHT22;3889;48.162;11.510;2022-07-29T04:54:11;18.90;99.90
7694;DHT22;3889;48.162;11.510;2022-07-29T04:56:39;19.00;99.90
7694;DHT22;3889;48.162;11.510;2022-07-29T04:59:08;19.10;99.90
7694;DHT22;3889;48.162;11.510;2022-07-29T05:01:38;19.10;99.90
7694;DHT22;3889;48.162;11.510;2022-07-29T05:04:07;19.20;99.90
7694;DHT22;3889;48.162;11.510;2022-07-29T05:06:35;19.20;99.90
7694;DHT22;3889;48.162;11.510;2022-07-29T05:09:03;19.30;99.90
7694;DHT22;3889;48.162;11.510;2022-07-29T05:11:32;19.30;99.90
7694;DHT22;3889;48.162;11.510;2022-07-29T05:14:00;19.30;99.90
7694;DHT22;3889;48.162;11.510;2022-07-29T05:16:28;19.20;99.90
7694;DHT22;3889;48.162;11.510;2022-07-29T05:18:56;19.20;99.90
7694;DHT22;3889;48.162;11.510;2022-07-29T05:21:24;19.30;99.90
7694;DHT22;3889;48.162;11.510;2022-07-29T05:23:52;19.40;99.90
7694;DHT22;3889;48.162;11.510;2022-07-29T05:26:20;19.60;99.90
7694;DHT22;3889;48.162;11.510;2022-07-29T05:28:49;19.60;99.90
7694;DHT22;3889;48.162;11.510;2022-07-29T05:31:17;19.70;99.90
7694;DHT22;3889;48.162;11.510;2022-07-29T05:33:45;19.80;99.90
7694;DHT22;3889;48.162;11.510;2022-07-29T05:36:13;19.90;99.90
7694;DHT22;3889;48.162;11.510;2022-07-29T05:38:41;20.00;99.90
7694;DHT22;3889;48.162;11.510;2022-07-29T05:41:09;20.00;99.90
7694;DHT22;3889;48.162;11.510;2022-07-29T05:43:36;20.00;99.90
7694;DHT22;3889;48.162;11.510;2022-07-29T05:46:06;20.10;99.90
7694;DHT22;3889;48.162;11.510;2022-07-29T05:48:34;20.10;99.90
7694;DHT22;3889;48.162;11.510;2022-07-29T05:51:02;20.10;99.90
7694;DHT22;3889;48.162;11.510;2022-07-29T05:53:30;20.10;99.90
7694;DHT22;3889;48.162;11.510;2022-07-29T05:55:58;20.20;99.90
7694;DHT22;3889;48.162;11.510;2022-07-29T05:58:30;20.40;99.90
7694;DHT22;3889;48.162;11.510;2022-07-29T06:00:58;20.50;99.90
7694;DHT22;3889;48.162;11.510;2022-07-29T06:03:28;20.70;99.90
7694;DHT22;3889;48.162;11.510;2022-07-29T06:05:56;20.80;99.90
7694;DHT22;3889;48.162;11.510;2022-07-29T06:08:25;20.90;99.90
7694;DHT22;3889;48.162;11.510;2022-07-29T06:10:53;20.90;99.90
7694;DHT22;3889;48.162;11.510;2022-07-29T06:13:21;20.90;99.90
7694;DHT22;3889;48.162;11.510;2022-07-29T06:15:48;20.90;99.90
7694;DHT22;3889;48.162;11.510;2022-07-29T06:18:16;20.80;99.90
7694;DHT22;3889;48.162;11.510;2022-07-29T06:20:46;20.90;99.90
7694;DHT22;3889;48.162;11.510;2022-07-29T06:23:14;20.90;99.90
7694;DHT22;3889;48.162;11.510;2022-07-29T06:25:42;21.00;99.90
7694;DHT22;3889;48.162;11.510;2022-07-29T06:28:10;21.10;99.90
7694;DHT22;3889;48.162;11.510;2022-07-29T06:30:39;21.30;99.90
7694;DHT22;3889;48.162;11.510;2022-07-29T06:33:07;21.40;99.90
7694;DHT22;3889;48.162;11.510;2022-07-29T06:35:36;21.50;99.90
7694;DHT22;3889;48.162;11.510;2022-07-29T06:38:12;21.70;99.90
7694;DHT22;3889;48.162;11.510;2022-07-29T06:40:58;21.80;99.90
7694;DHT22;3889;48.162;11.510;2022-07-29T06:43:32;21.80;99.90
7694;DHT22;3889;48.162;11.510;2022-07-29T06:46:18;21.90;99.90
7694;DHT22;3889;48.162;11.510;2022-07-29T06:48:46;22.00;99.90
7694;DHT22;3889;48.162;11.510;2022-07-29T06:51:16;22.10;99.90
7694;DHT22;3889;48.162;11.510;2022-07-29T06:53:50;22.20;99.90
7694;DHT22;3889;48.162;11.510;2022-07-29T06:56:27;22.30;99.90
7694;DHT22;3889;48.162;11.510;2022-07-29T06:58:55;22.30;99.90
7694;DHT22;3889;48.162;11.510;2022-07-29T07:01:23;22.50;99.90
7694;DHT22;3889;48.162;11.510;2022-07-29T07:03:51;22.70;99.90
7694;DHT22;3889;48.162;11.510;2022-07-29T07:06:19;22.80;99.90
7694;DHT22;3889;48.162;11.510;2022-07-29T07:08:47;22.90;99.90
7694;DHT22;3889;48.162;11.510;2022-07-29T07:11:16;22.90;99.90
7694;DHT22;3889;48.162;11.510;2022-07-29T07:13:44;22.90;99.90
7694;DHT22;3889;48.162;11.510;2022-07-29T07:16:12;23.00;99.90
7694;DHT22;3889;48.162;11.510;2022-07-29T07:18:40;23.00;99.90
7694;DHT22;3889;48.162;11.510;2022-07-29T07:21:08;23.10;99.90
7694;DHT22;3889;48.162;11.510;2022-07-29T07:23:36;23.20;99.90
7694;DHT22;3889;48.162;11.510;2022-07-29T07:26:04;23.30;99.90
7694;DHT22;3889;48.162;11.510;2022-07-29T07:28:33;23.40;99.90
7694;DHT22;3889;48.162;11.510;2022-07-29T07:31:01;23.50;99.90
7694;DHT22;3889;48.162;11.510;2022-07-29T07:33:29;23.60;99.90
7694;DHT22;3889;48.162;11.510;2022-07-29T07:35:57;23.70;99.90
7694;DHT22;3889;48.162;11.510;2022-07-29T07:38:25;23.70;99.90
7694;DHT22;3889;48.162;11.510;2022-07-29T07:40:53;23.80;99.90
7694;DHT22;3889;48.162;11.510;2022-07-29T07:43:21;23.80;99.90
7694;DHT22;3889;48.162;11.510;2022-07-29T07:45:50;23.80;99.90
7694;DHT22;3889;48.162;11.510;2022-07-29T07:48:19;23.90;99.90
7694;DHT22;3889;48.162;11.510;2022-07-29T07:50:47;24.10;99.90
7694;DHT22;3889;48.162;11.510;2022-07-29T07:53:17;24.10;99.90
7694;DHT22;3889;48.162;11.510;2022-07-29T07:55:45;24.10;99.90
7694;DHT22;3889;48.162;11.510;2022-07-29T07:58:33;24.20;99.90
7694;DHT22;3889;48.162;11.510;2022-07-29T08:01:03;24.30;99.90
7694;DHT22;3889;48.162;11.510;2022-07-29T08:03:31;24.40;99.90
7694;DHT22;3889;48.162;11.510;2022-07-29T08:05:58;24.50;99.90
7694;DHT22;3889;48.162;11.510;2022-07-29T08:08:26;24.60;99.90
7694;DHT22;3889;48.162;11.510;2022-07-29T08:10:54;24.70;99.90
7694;DHT22;3889;48.162;11.510;2022-07-29T08:13:24;24.70;99.90
7694;DHT22;3889;48.162;11.510;2022-07-29T08:15:54;24.80;99.90
7694;DHT22;3889;48.162;11.510;2022-07-29T08:18:29;24.80;99.90
7694;DHT22;3889;48.162;11.510;2022-07-29T08:20:58;24.70;99.90
7694;DHT22;3889;48.162;11.510;2022-07-29T08:23:26;24.80;99.90
7694;DHT22;3889;48.162;11.510;2022-07-29T08:26:15;24.90;99.90
7694;DHT22;3889;48.162;11.510;2022-07-29T08:28:43;24.90;99.90
7694;DHT22;3889;48.162;11.510;2022-07-29T08:31:12;24.90;99.90
7694;DHT22;3889;48.162;11.510;2022-07-29T08:33:42;25.20;99.90
7694;DHT22;3889;48.162;11.510;2022-07-29T08:36:10;25.40;99.90
7694;DHT22;3889;48.162;11.510;2022-07-29T08:38:39;25.60;99.90
7694;DHT22;3889;48.162;11.510;2022-07-29T08:41:07;25.70;99.90
7694;DHT22;3889;48.162;11.510;2022-07-29T08:43:35;25.80;99.90
7694;DHT22;3889;48.162;11.510;2022-07-29T08:46:05;25.80;99.90
7694;DHT22;3889;48.162;11.510;2022-07-29T08:48:33;25.90;99.90
7694;DHT22;3889;48.162;11.510;2022-07-29T08:51:02;26.00;99.90
7694;DHT22;3889;48.162;11.510;2022-07-29T08:53:33;26.00;99.90
7694;DHT22;3889;48.162;11.510;2022-07-29T08:56:01;25.80;99.90
7694;DHT22;3889;48.162;11.510;2022-07-29T08:58:32;25.50;99.90
7694;DHT22;3889;48.162;11.510;2022-07-29T09:01:04;25.40;99.90
7694;DHT22;3889;48.162;11.510;2022-07-29T09:03:40;25.30;99.90
7694;DHT22;3889;48.162;11.510;2022-07-29T09:06:13;25.20;99.90
7694;DHT22;3889;48.162;11.510;2022-07-29T09:08:41;25.50;99.90
7694;DHT22;3889;48.162;11.510;2022-07-29T09:11:10;25.60;99.90
7694;DHT22;3889;48.162;11.510;2022-07-29T09:13:38;25.70;99.90
7694;DHT22;3889;48.162;11.510;2022-07-29T09:16:06;25.60;99.90
7694;DHT22;3889;48.162;11.510;2022-07-29T09:18:36;25.50;99.90
7694;DHT22;3889;48.162;11.510;2022-07-29T09:21:06;25.70;99.90
7694;DHT22;3889;48.162;11.510;2022-07-29T09:24:09;25.90;99.90
7694;DHT22;3889;48.162;11.510;2022-07-29T09:26:39;26.10;99.90
7694;DHT22;3889;48.162;11.510;2022-07-29T09:29:08;26.30;99.90
7694;DHT22;3889;48.162;11.510;2022-07-29T09:31:38;26.20;99.90
7694;DHT22;3889;48.162;11.510;2022-07-29T09:34:09;26.30;99.90
7694;DHT22;3889;48.162;11.510;2022-07-29T09:36:39;26.20;99.90
7694;DHT22;3889;48.162;11.510;2022-07-29T09:39:09;26.20;99.90
7694;DHT22;3889;48.162;11.510;2022-07-29T09:41:45;26.10;99.90
7694;DHT22;3889;48.162;11.510;2022-07-29T09:44:13;25.90;99.90
7694;DHT22;3889;48.162;11.510;2022-07-29T09:46:53;25.60;99.90
7694;DHT22;3889;48.162;11.510;2022-07-29T09:49:21;25.10;99.90
7694;DHT22;3889;48.162;11.510;2022-07-29T09:52:05;24.90;99.90
7694;DHT22;3889;48.162;11.510;2022-07-29T09:54:36;24.70;99.90
7694;DHT22;3889;48.162;11.510;2022-07-29T09:57:05;24.90;99.90
7694;DHT22;3889;48.162;11.510;2022-07-29T09:59:33;25.20;99.90
7694;DHT22;3889;48.162;11.510;2022-07-29T10:02:15;25.20;99.90
7694;DHT22;3889;48.162;11.510;2022-07-29T10:04:49;25.10;99.90
7694;DHT22;3889;48.162;11.510;2022-07-29T10:07:17;25.00;99.90
7694;DHT22;3889;48.162;11.510;2022-07-29T10:09:53;25.10;99.90
7694;DHT22;3889;48.162;11.510;2022-07-29T10:12:21;25.20;99.90
7694;DHT22;3889;48.162;11.510;2022-07-29T10:14:50;25.10;99.90
7694;DHT22;3889;48.162;11.510;2022-07-29T10:17:18;25.10;99.90
7694;DHT22;3889;48.162;11.510;2022-07-29T10:19:47;25.20;99.90
7694;DHT22;3889;48.162;11.510;2022-07-29T10:22:15;25.10;99.90
7694;DHT22;3889;48.162;11.510;2022-07-29T10:25:05;25.10;99.90
7694;DHT22;3889;48.162;11.510;2022-07-29T10:27:34;25.00;99.90
7694;DHT22;3889;48.162;11.510;2022-07-29T10:30:03;25.20;99.90
7694;DHT22;3889;48.162;11.510;2022-07-29T10:32:51;25.60;99.90
7694;DHT22;3889;48.162;11.510;2022-07-29T10:35:31;25.80;99.90
7694;DHT22;3889;48.162;11.510;2022-07-29T10:41:29;25.60;99.90
7694;DHT22;3889;48.162;11.510;2022-07-29T10:44:14;25.70;99.90
7694;DHT22;3889;48.162;11.510;2022-07-29T10:46:45;26.10;99.90
7694;DHT22;3889;48.162;11.510;2022-07-29T10:49:15;26.30;99.90
7694;DHT22;3889;48.162;11.510;2022-07-29T10:52:04;26.30;99.90
7694;DHT22;3889;48.162;11.510;2022-07-29T10:54:40;26.60;99.90
7694;DHT22;3889;48.162;11.510;2022-07-29T10:57:15;26.70;99.90
7694;DHT22;3889;48.162;11.510;2022-07-29T10:59:45;26.90;99.90
7694;DHT22;3889;48.162;11.510;2022-07-29T11:02:44;26.90;99.90
7694;DHT22;3889;48.162;11.510;2022-07-29T11:05:17;26.70;99.90
7694;DHT22;3889;48.162;11.510;2022-07-29T11:08:21;26.70;99.90
7694;DHT22;3889;48.162;11.510;2022-07-29T11:14:04;27.10;99.90
7694;DHT22;3889;48.162;11.510;2022-07-29T11:17:02;27.30;99.90
7694;DHT22;3889;48.162;11.510;2022-07-29T11:19:50;27.30;99.90
7694;DHT22;3889;48.162;11.510;2022-07-29T11:22:31;27.40;99.90
7694;DHT22;3889;48.162;11.510;2022-07-29T11:25:12;27.20;99.90
7694;DHT22;3889;48.162;11.510;2022-07-29T11:27:42;26.80;99.90
7694;DHT22;3889;48.162;11.510;2022-07-29T11:30:13;26.50;99.90
7694;DHT22;3889;48.162;11.510;2022-07-29T11:32:42;26.50;99.90
7694;DHT22;3889;48.162;11.510;2022-07-29T11:35:16;26.50;99.90
7694;DHT22;3889;48.162;11.510;2022-07-29T11:38:23;26.60;99.90
7694;DHT22;3889;48.162;11.510;2022-07-29T11:41:22;26.70;99.90
7694;DHT22;3889;48.162;11.510;2022-07-29T11:43:53;26.80;99.90
7694;DHT22;3889;48.162;11.510;2022-07-29T11:46:45;26.50;99.90
7694;DHT22;3889;48.162;11.510;2022-07-29T11:49:19;26.40;99.90
7694;DHT22;3889;48.162;11.510;2022-07-29T11:51:59;26.30;99.90
7694;DHT22;3889;48.162;11.510;2022-07-29T11:54:31;26.20;99.90
7694;DHT22;3889;48.162;11.510;2022-07-29T11:57:19;26.20;99.90
7694;DHT22;3889;48.162;11.510;2022-07-29T11:59:47;26.10;99.90
7694;DHT22;3889;48.162;11.510;2022-07-29T12:02:17;26.00;99.90
7694;DHT22;3889;48.162;11.510;2022-07-29T12:05:03;26.10;99.90
7694;DHT22;3889;48.162;11.510;2022-07-29T12:07:38;26.00;99.90
7694;DHT22;3889;48.162;11.510;2022-07-29T12:10:11;26.10;99.90
7694;DHT22;3889;48.162;11.510;2022-07-29T12:12:51;26.10;99.90
7694;DHT22;3889;48.162;11.510;2022-07-29T12:15:20;26.10;99.90
7694;DHT22;3889;48.162;11.510;2022-07-29T12:18:14;26.30;99.90
7694;DHT22;3889;48.162;11.510;2022-07-29T12:20:44;26.20;99.90
7694;DHT22;3889;48.162;11.510;2022-07-29T12:23:13;26.30;99.90
7694;DHT22;3889;48.162;11.510;2022-07-29T12:25:43;26.40;99.90
7694;DHT22;3889;48.162;11.510;2022-07-29T12:28:16;26.50;99.90
7694;DHT22;3889;48.162;11.510;2022-07-29T12:30:52;26.40;99.90
7694;DHT22;3889;48.162;11.510;2022-07-29T12:33:23;26.30;99.90
7694;DHT22;3889;48.162;11.510;2022-07-29T12:35:54;26.30;99.90
7694;DHT22;3889;48.162;11.510;2022-07-29T12:38:34;26.30;99.90
7694;DHT22;3889;48.162;11.510;2022-07-29T12:41:02;26.40;99.90
7694;DHT22;3889;48.162;11.510;2022-07-29T12:43:31;26.30;99.90
7694;DHT22;3889;48.162;11.510;2022-07-29T12:46:11;26.20;99.90
7694;DHT22;3889;48.162;11.510;2022-07-29T12:48:42;26.10;99.90
7694;DHT22;3889;48.162;11.510;2022-07-29T12:51:11;26.10;99.90
7694;DHT22;3889;48.162;11.510;2022-07-29T12:54:07;26.00;99.90
7694;DHT22;3889;48.162;11.510;2022-07-29T12:56:37;25.90;99.90
7694;DHT22;3889;48.162;11.510;2022-07-29T12:59:14;25.80;99.90
7694;DHT22;3889;48.162;11.510;2022-07-29T13:01:43;25.60;99.90
7694;DHT22;3889;48.162;11.510;2022-07-29T13:04:24;25.40;99.90
7694;DHT22;3889;48.162;11.510;2022-07-29T13:06:58;25.20;99.90
7694;DHT22;3889;48.162;11.510;2022-07-29T13:09:37;25.10;99.90
7694;DHT22;3889;48.162;11.510;2022-07-29T13:12:06;25.00;99.90
7694;DHT22;3889;48.162;11.510;2022-07-29T13:14:38;24.90;99.90
7694;DHT22;3889;48.162;11.510;2022-07-29T13:17:07;24.80;99.90
7694;DHT22;3889;48.162;11.510;2022-07-29T13:19:38;24.90;99.90
7694;DHT22;3889;48.162;11.510;2022-07-29T13:22:08;24.80;99.90
7694;DHT22;3889;48.162;11.510;2022-07-29T13:24:46;24.80;99.90
7694;DHT22;3889;48.162;11.510;2022-07-29T13:27:14;24.60;99.90
7694;DHT22;3889;48.162;11.510;2022-07-29T13:29:42;24.50;99.90
7694;DHT22;3889;48.162;11.510;2022-07-29T13:32:11;24.40;99.90
7694;DHT22;3889;48.162;11.510;2022-07-29T13:34:40;24.40;99.90
7694;DHT22;3889;48.162;11.510;2022-07-29T13:37:08;24.40;99.90
7694;DHT22;3889;48.162;11.510;2022-07-29T13:39:36;24.50;99.90
7694;DHT22;3889;48.162;11.510;2022-07-29T13:42:05;24.50;99.90
7694;DHT22;3889;48.162;11.510;2022-07-29T13:44:37;24.40;99.90
7694;DHT22;3889;48.162;11.510;2022-07-29T13:47:05;24.40;99.90
7694;DHT22;3889;48.162;11.510;2022-07-29T13:49:33;24.50;99.90
7694;DHT22;3889;48.162;11.510;2022-07-29T13:52:03;24.50;99.90
7694;DHT22;3889;48.162;11.510;2022-07-29T13:54:33;24.60;99.90
7694;DHT22;3889;48.162;11.510;2022-07-29T13:57:08;24.50;99.90
7694;DHT22;3889;48.162;11.510;2022-07-29T13:59:37;24.50;99.90
7694;DHT22;3889;48.162;11.510;2022-07-29T14:02:05;24.60;99.90
7694;DHT22;3889;48.162;11.510;2022-07-29T14:04:33;24.70;99.90
7694;DHT22;3889;48.162;11.510;2022-07-29T14:07:06;24.80;99.90
7694;DHT22;3889;48.162;11.510;2022-07-29T14:09:34;24.80;99.90
7694;DHT22;3889;48.162;11.510;2022-07-29T14:12:08;24.80;99.90
7694;DHT22;3889;48.162;11.510;2022-07-29T14:14:36;24.90;99.90
7694;DHT22;3889;48.162;11.510;2022-07-29T14:17:04;24.90;99.90
7694;DHT22;3889;48.162;11.510;2022-07-29T14:19:33;24.80;99.90
7694;DHT22;3889;48.162;11.510;2022-07-29T14:22:06;24.70;99.90
7694;DHT22;3889;48.162;11.510;2022-07-29T14:24:37;24.80;99.90
7694;DHT22;3889;48.162;11.510;2022-07-29T14:27:05;24.80;99.90
7694;DHT22;3889;48.162;11.510;2022-07-29T14:29:34;24.90;99.90
7694;DHT22;3889;48.162;11.510;2022-07-29T14:32:04;24.90;99.90
7694;DHT22;3889;48.162;11.510;2022-07-29T14:34:33;24.90;99.90
7694;DHT22;3889;48.162;11.510;2022-07-29T14:37:01;24.80;99.90
7694;DHT22;3889;48.162;11.510;2022-07-29T14:39:31;24.80;99.90
7694;DHT22;3889;48.162;11.510;2022-07-29T14:42:01;24.80;99.90
7694;DHT22;3889;48.162;11.510;2022-07-29T14:44:29;24.70;99.90
7694;DHT22;3889;48.162;11.510;2022-07-29T14:46:58;24.80;99.90
7694;DHT22;3889;48.162;11.510;2022-07-29T14:49:33;24.90;99.90
7694;DHT22;3889;48.162;11.510;2022-07-29T14:52:01;24.80;99.90
7694;DHT22;3889;48.162;11.510;2022-07-29T14:54:30;24.70;99.90
7694;DHT22;3889;48.162;11.510;2022-07-29T14:57:00;24.60;99.90
7694;DHT22;3889;48.162;11.510;2022-07-29T14:59:28;24.50;99.90
7694;DHT22;3889;48.162;11.510;2022-07-29T15:01:56;24.40;99.90
7694;DHT22;3889;48.162;11.510;2022-07-29T15:04:24;24.40;99.90
7694;DHT22;3889;48.162;11.510;2022-07-29T15:06:52;24.40;99.90
7694;DHT22;3889;48.162;11.510;2022-07-29T15:09:21;24.30;99.90
7694;DHT22;3889;48.162;11.510;2022-07-29T15:11:50;24.30;99.90
7694;DHT22;3889;48.162;11.510;2022-07-29T15:14:19;24.20;99.90
7694;DHT22;3889;48.162;11.510;2022-07-29T15:16:47;24.10;99.90
7694;DHT22;3889;48.162;11.510;2022-07-29T15:19:18;24.00;99.90
7694;DHT22;3889;48.162;11.510;2022-07-29T15:21:46;23.90;99.90
7694;DHT22;3889;48.162;11.510;2022-07-29T15:24:14;23.90;99.90
7694;DHT22;3889;48.162;11.510;2022-07-29T15:26:43;23.80;99.90
7694;DHT22;3889;48.162;11.510;2022-07-29T15:29:12;23.80;99.90
7694;DHT22;3889;48.162;11.510;2022-07-29T15:31:41;23.70;99.90
7694;DHT22;3889;48.162;11.510;2022-07-29T15:34:09;23.60;99.90
7694;DHT22;3889;48.162;11.510;2022-07-29T15:36:37;23.60;99.90
7694;DHT22;3889;48.162;11.510;2022-07-29T15:39:20;23.60;99.90
7694;DHT22;3889;48.162;11.510;2022-07-29T15:41:49;23.70;99.90
7694;DHT22;3889;48.162;11.510;2022-07-29T15:44:19;23.70;99.90
7694;DHT22;3889;48.162;11.510;2022-07-29T15:46:47;23.70;99.90
7694;DHT22;3889;48.162;11.510;2022-07-29T15:49:30;23.80;99.90
7694;DHT22;3889;48.162;11.510;2022-07-29T15:52:17;23.80;99.90
7694;DHT22;3889;48.162;11.510;2022-07-29T15:54:52;23.70;99.90
7694;DHT22;3889;48.162;11.510;2022-07-29T15:57:20;23.70;99.90
7694;DHT22;3889;48.162;11.510;2022-07-29T15:59:50;23.60;99.90
7694;DHT22;3889;48.162;11.510;2022-07-29T16:02:18;23.60;99.90
7694;DHT22;3889;48.162;11.510;2022-07-29T16:04:46;23.50;99.90
7694;DHT22;3889;48.162;11.510;2022-07-29T16:07:14;23.50;99.90
7694;DHT22;3889;48.162;11.510;2022-07-29T16:09:42;23.50;99.90
7694;DHT22;3889;48.162;11.510;2022-07-29T16:12:16;23.40;99.90
7694;DHT22;3889;48.162;11.510;2022-07-29T16:14:45;23.30;99.90
7694;DHT22;3889;48.162;11.510;2022-07-29T16:17:16;23.30;99.90
7694;DHT22;3889;48.162;11.510;2022-07-29T16:19:44;23.30;99.90